PWSweather.com
Personal Weather Stations
Station Observations
J24K28P63
Vysocina, PocatkyCZ 39464

VysocinaPocatkyCZ 39464

Lat: 49.2594238, Lon: 15.2331769

Elevation: 2011

Station Type: Vantage Pro2+

http://meteo-jirkalina.com

High Low Average
Temperature 94.9°F34.9°F 63.8°F17.7°F 76.3°F24.6°F
Dew Point 71.9°F22.2°F 46.7°F8.2°F 63.8°F17.7°F
Winds 12.0 mph -19.3 mph - Calm Calm 3.5 mph 5.6 mph
Wind Gusts 20.0 mph32.2 mph -- 6.1 mph9.8 mph
Humidity 96% 27% 69%
Pressure 29.97 in1014.90 in 29.75 in1007.50 in -
Precipitation 0.48 in12.20 in - -
Hour Temp Dew Point Humidity Winds Wind Gusts Pressure Precip Precip Rate Daily Precip Total
12:00 AM 72.7°F22.6°C 60.3°F15.7°C 65% 9.9 mph SE15.9 kmh SE 15.0 mph24.1 kmh 29.83 in1010.2 mb - 0.00 in0.0 mm 0.00 in0.0 mm
12:10 AM 72.0°F22.2°C 67.6°F19.8°C 86% 3.0 mph E4.8 kmh E 8.0 mph12.9 kmh 29.88 in1011.9 mb - 0.00 in0.0 mm 0.00 in0.0 mm
12:20 AM 72.0°F22.2°C 67.6°F19.8°C 86% 3.0 mph E4.8 kmh E 5.0 mph8.0 kmh 29.88 in1011.9 mb - 0.00 in0.0 mm 0.00 in0.0 mm
12:30 AM 72.6°F22.6°C 59.7°F15.4°C 64% 10.7 mph SE17.2 kmh SE 17.0 mph27.4 kmh 29.83 in1010.2 mb - 0.00 in0.0 mm 0.00 in0.0 mm
12:40 AM 71.6°F22.0°C 67.9°F19.9°C 88% 3.0 mph E4.8 kmh E 7.0 mph11.3 kmh 29.87 in1011.5 mb - 0.00 in0.0 mm 0.00 in0.0 mm
12:50 AM 71.5°F21.9°C 67.8°F19.9°C 88% 3.0 mph E4.8 kmh E 5.0 mph8.0 kmh 29.87 in1011.5 mb - 0.00 in0.0 mm 0.00 in0.0 mm
01:00 AM 71.8°F22.1°C 59.8°F15.4°C 66% 9.9 mph SE15.9 kmh SE 20.0 mph32.2 kmh 29.82 in1009.8 mb - 0.00 in0.0 mm 0.00 in0.0 mm
01:10 AM 71.2°F21.8°C 67.8°F19.9°C 89% 2.0 mph E3.2 kmh E 5.0 mph8.0 kmh 29.86 in1011.2 mb - 0.00 in0.0 mm 0.00 in0.0 mm
01:20 AM 70.7°F21.5°C 67.6°F19.8°C 90% 1.0 mph E1.6 kmh E 3.0 mph4.8 kmh 29.86 in1011.2 mb - 0.00 in0.0 mm 0.00 in0.0 mm
01:30 AM 71.3°F21.8°C 60.6°F15.9°C 69% 7.4 mph E11.9 kmh E 19.0 mph30.6 kmh 29.82 in1009.8 mb - 0.00 in0.0 mm 0.00 in0.0 mm
01:40 AM 70.4°F21.3°C 68.0°F20.0°C 92% 3.0 mph E4.8 kmh E 5.0 mph8.0 kmh 29.85 in1010.8 mb - 0.00 in0.0 mm 0.00 in0.0 mm
01:50 AM 70.8°F21.6°C 68.3°F20.2°C 92% 5.0 mph E8.0 kmh E 5.0 mph8.0 kmh 29.85 in1010.8 mb - 0.00 in0.0 mm 0.00 in0.0 mm
02:00 AM 71.5°F21.9°C 59.5°F15.3°C 66% 11.4 mph SE18.3 kmh SE 15.0 mph24.1 kmh 29.82 in1009.8 mb - 0.00 in0.0 mm 0.00 in0.0 mm
02:10 AM 70.7°F21.5°C 68.3°F20.2°C 92% 3.0 mph E4.8 kmh E 5.0 mph8.0 kmh 29.84 in1010.5 mb - 0.00 in0.0 mm 0.00 in0.0 mm
02:20 AM 70.8°F21.6°C 68.4°F20.2°C 92% 5.0 mph E8.0 kmh E 7.0 mph11.3 kmh 29.84 in1010.5 mb - 0.00 in0.0 mm 0.00 in0.0 mm
02:30 AM 71.6°F22.0°C 58.7°F14.8°C 64% 9.0 mph SE14.5 kmh SE 18.0 mph29.0 kmh 29.80 in1009.1 mb - 0.00 in0.0 mm 0.00 in0.0 mm
02:40 AM 70.9°F21.6°C 68.1°F20.1°C 91% 5.0 mph E8.0 kmh E 7.0 mph11.3 kmh 29.83 in1010.2 mb - 0.00 in0.0 mm 0.00 in0.0 mm
02:50 AM 70.8°F21.6°C 68.1°F20.1°C 91% 2.0 mph E3.2 kmh E 3.0 mph4.8 kmh 29.83 in1010.2 mb - 0.00 in0.0 mm 0.00 in0.0 mm
03:00 AM 71.3°F21.8°C 57.6°F14.2°C 62% 10.0 mph E16.1 kmh E 17.0 mph27.4 kmh 29.79 in1008.8 mb - 0.00 in0.0 mm 0.00 in0.0 mm
03:10 AM 70.4°F21.3°C 67.6°F19.8°C 91% 3.0 mph E4.8 kmh E 8.0 mph12.9 kmh 29.82 in1009.8 mb - 0.00 in0.0 mm 0.00 in0.0 mm
03:20 AM 69.9°F21.1°C 67.5°F19.7°C 92% 5.0 mph E8.0 kmh E 9.0 mph14.5 kmh 29.82 in1009.8 mb - 0.00 in0.0 mm 0.00 in0.0 mm
03:30 AM 70.6°F21.4°C 58.3°F14.6°C 65% 9.8 mph E15.8 kmh E 14.0 mph22.5 kmh 29.78 in1008.5 mb - 0.00 in0.0 mm 0.00 in0.0 mm
03:40 AM 69.7°F20.9°C 67.6°F19.8°C 93% 3.0 mph E4.8 kmh E 5.0 mph8.0 kmh 29.81 in1009.5 mb - 0.00 in0.0 mm 0.00 in0.0 mm
03:50 AM 69.5°F20.8°C 67.4°F19.7°C 93% 5.0 mph E8.0 kmh E 7.0 mph11.3 kmh 29.81 in1009.5 mb - 0.00 in0.0 mm 0.00 in0.0 mm
04:00 AM 69.9°F21.1°C 58.4°F14.7°C 67% 9.3 mph SE15.0 kmh SE 12.0 mph19.3 kmh 29.78 in1008.5 mb - 0.00 in0.0 mm 0.00 in0.0 mm
04:10 AM 69.3°F20.7°C 67.2°F19.6°C 93% 1.0 mph E1.6 kmh E 1.0 mph1.6 kmh 29.82 in1009.8 mb - 0.00 in0.0 mm 0.00 in0.0 mm
04:20 AM 69.2°F20.7°C 67.1°F19.5°C 93% Calm Calm 1.0 mph1.6 kmh 29.82 in1009.8 mb - 0.00 in0.0 mm 0.00 in0.0 mm
04:30 AM 69.3°F20.7°C 59.1°F15.1°C 70% 7.9 mph S12.7 kmh S 14.0 mph22.5 kmh 29.78 in1008.5 mb - 0.00 in0.0 mm 0.00 in0.0 mm
04:40 AM 68.8°F20.4°C 67.3°F19.6°C 95% 1.0 mph E1.6 kmh E 3.0 mph4.8 kmh 29.82 in1009.8 mb - 0.00 in0.0 mm 0.00 in0.0 mm
04:50 AM 68.8°F20.4°C 67.3°F19.6°C 95% 2.0 mph E3.2 kmh E 3.0 mph4.8 kmh 29.81 in1009.5 mb - 0.00 in0.0 mm 0.00 in0.0 mm
05:00 AM 68.8°F20.4°C 59.0°F15.0°C 71% 7.0 mph S11.3 kmh S 12.0 mph19.3 kmh 29.78 in1008.5 mb - 0.00 in0.0 mm 0.00 in0.0 mm
05:10 AM 69.0°F20.6°C 67.5°F19.7°C 95% 5.0 mph E8.0 kmh E 5.0 mph8.0 kmh 29.81 in1009.5 mb - 0.00 in0.0 mm 0.00 in0.0 mm
05:20 AM 69.2°F20.7°C 67.4°F19.7°C 94% 2.0 mph E3.2 kmh E 3.0 mph4.8 kmh 29.81 in1009.5 mb - 0.00 in0.0 mm 0.00 in0.0 mm
05:30 AM 69.0°F20.6°C 59.5°F15.3°C 72% 4.8 mph SE7.7 kmh SE 10.0 mph16.1 kmh 29.78 in1008.5 mb - 0.00 in0.0 mm 0.00 in0.0 mm
05:40 AM 70.7°F21.5°C 68.3°F20.2°C 92% 3.0 mph E4.8 kmh E 8.0 mph12.9 kmh 29.80 in1009.1 mb - 0.00 in0.0 mm 0.00 in0.0 mm
05:50 AM 71.9°F22.2°C 68.8°F20.4°C 90% 2.0 mph E3.2 kmh E 5.0 mph8.0 kmh 29.80 in1009.1 mb - 0.00 in0.0 mm 0.00 in0.0 mm
06:00 AM 69.9°F21.1°C 59.7°F15.4°C 70% 3.0 mph SE4.8 kmh SE 4.0 mph6.4 kmh 29.78 in1008.5 mb - 0.00 in0.0 mm 0.00 in0.0 mm
06:10 AM 73.5°F23.1°C 68.7°F20.4°C 85% 3.0 mph E4.8 kmh E 3.0 mph4.8 kmh 29.80 in1009.1 mb - 0.00 in0.0 mm 0.00 in0.0 mm
06:20 AM 73.2°F22.9°C 68.8°F20.4°C 86% 3.0 mph E4.8 kmh E 6.0 mph9.7 kmh 29.81 in1009.5 mb - 0.00 in0.0 mm 0.00 in0.0 mm
06:30 AM 71.1°F21.7°C 58.7°F14.8°C 65% 3.0 mph SE4.8 kmh SE 8.0 mph12.9 kmh 29.77 in1008.1 mb - 0.00 in0.0 mm 0.00 in0.0 mm
06:40 AM 74.6°F23.7°C 68.7°F20.4°C 82% 1.0 mph E1.6 kmh E 3.0 mph4.8 kmh 29.80 in1009.1 mb - 0.00 in0.0 mm 0.00 in0.0 mm
06:50 AM 74.6°F23.7°C 68.7°F20.4°C 82% 1.0 mph E1.6 kmh E 2.0 mph3.2 kmh 29.80 in1009.1 mb - 0.00 in0.0 mm 0.00 in0.0 mm
07:00 AM 72.0°F22.2°C 58.3°F14.6°C 62% 3.5 mph SE5.6 kmh SE 9.0 mph14.5 kmh 29.78 in1008.5 mb - 0.00 in0.0 mm 0.00 in0.0 mm
07:10 AM 76.5°F24.7°C 69.5°F20.8°C 79% 2.0 mph E3.2 kmh E 7.0 mph11.3 kmh 29.80 in1009.1 mb - 0.00 in0.0 mm 0.00 in0.0 mm
07:20 AM 77.1°F25.1°C 69.3°F20.7°C 77% 3.0 mph E4.8 kmh E 6.0 mph9.7 kmh 29.80 in1009.1 mb - 0.00 in0.0 mm 0.00 in0.0 mm
07:30 AM 73.8°F23.2°C 57.1°F13.9°C 56% 2.4 mph SE3.9 kmh SE 5.0 mph8.0 kmh 29.78 in1008.5 mb - 0.00 in0.0 mm 0.00 in0.0 mm
07:40 AM 76.6°F24.8°C 68.8°F20.4°C 77% 2.0 mph E3.2 kmh E 6.0 mph9.7 kmh 29.80 in1009.1 mb - 0.00 in0.0 mm 0.00 in0.0 mm
07:50 AM 77.4°F25.2°C 68.8°F20.4°C 75% 1.0 mph E1.6 kmh E 3.0 mph4.8 kmh 29.80 in1009.1 mb - 0.00 in0.0 mm 0.00 in0.0 mm
08:00 AM 75.3°F24.1°C 54.8°F12.7°C 49% 4.2 mph SE6.8 kmh SE 6.0 mph9.7 kmh 29.78 in1008.5 mb - 0.00 in0.0 mm 0.00 in0.0 mm
08:10 AM 78.6°F25.9°C 69.2°F20.7°C 73% 3.0 mph E4.8 kmh E 3.0 mph4.8 kmh 29.80 in1009.1 mb - 0.00 in0.0 mm 0.00 in0.0 mm
08:20 AM 80.1°F26.7°C 67.7°F19.8°C 66% 1.0 mph E1.6 kmh E 6.0 mph9.7 kmh 29.80 in1009.1 mb - 0.00 in0.0 mm 0.00 in0.0 mm
08:30 AM 75.6°F24.2°C 56.2°F13.4°C 51% 5.0 mph E8.0 kmh E 7.0 mph11.3 kmh 29.79 in1008.8 mb - 0.00 in0.0 mm 0.00 in0.0 mm
08:40 AM 80.4°F26.9°C 68.5°F20.3°C 67% 2.0 mph E3.2 kmh E 7.0 mph11.3 kmh 29.81 in1009.5 mb - 0.00 in0.0 mm 0.00 in0.0 mm
08:50 AM 80.2°F26.8°C 69.1°F20.6°C 69% 1.0 mph E1.6 kmh E 1.0 mph1.6 kmh 29.82 in1009.8 mb - 0.00 in0.0 mm 0.00 in0.0 mm
09:00 AM 78.3°F25.7°C 57.0°F13.9°C 48% 4.1 mph ESE6.6 kmh ESE 12.0 mph19.3 kmh 29.79 in1008.8 mb - 0.00 in0.0 mm 0.00 in0.0 mm
09:10 AM 80.9°F27.2°C 68.5°F20.3°C 66% 2.0 mph E3.2 kmh E 2.0 mph3.2 kmh 29.81 in1009.5 mb - 0.00 in0.0 mm 0.00 in0.0 mm
09:20 AM 81.0°F27.2°C 69.0°F20.6°C 67% 6.0 mph E9.7 kmh E 9.0 mph14.5 kmh 29.81 in1009.5 mb - 0.00 in0.0 mm 0.00 in0.0 mm
09:30 AM 78.8°F26.0°C 56.3°F13.5°C 46% 5.2 mph SE8.4 kmh SE 7.0 mph11.3 kmh 29.78 in1008.5 mb - 0.00 in0.0 mm 0.00 in0.0 mm
09:40 AM 81.7°F27.6°C 69.2°F20.7°C 66% Calm Calm 2.0 mph3.2 kmh 29.81 in1009.5 mb - 0.00 in0.0 mm 0.00 in0.0 mm
09:50 AM 83.9°F28.8°C 70.8°F21.6°C 65% 2.0 mph E3.2 kmh E 7.0 mph11.3 kmh 29.80 in1009.1 mb - 0.00 in0.0 mm 0.00 in0.0 mm
10:00 AM 81.2°F27.3°C 49.4°F9.7°C 33% 5.6 mph ESE9.0 kmh ESE 10.0 mph16.1 kmh 29.77 in1008.1 mb - 0.00 in0.0 mm 0.00 in0.0 mm
10:10 AM 86.5°F30.3°C 69.0°F20.6°C 56% 3.0 mph ESE4.8 kmh ESE 9.0 mph14.5 kmh 29.80 in1009.1 mb - 0.00 in0.0 mm 0.00 in0.0 mm
10:20 AM 86.5°F30.3°C 69.9°F21.1°C 58% 2.0 mph E3.2 kmh E 6.0 mph9.7 kmh 29.80 in1009.1 mb - 0.00 in0.0 mm 0.00 in0.0 mm
10:30 AM 82.0°F27.8°C 49.2°F9.6°C 32% 0.5 mph SSE0.8 kmh SSE 3.0 mph4.8 kmh 29.77 in1008.1 mb - 0.00 in0.0 mm 0.00 in0.0 mm
10:40 AM 86.3°F30.2°C 68.8°F20.4°C 56% Calm Calm 1.0 mph1.6 kmh 29.81 in1009.5 mb - 0.00 in0.0 mm 0.00 in0.0 mm
10:50 AM 86.0°F30.0°C 68.5°F20.3°C 56% 2.0 mph SE3.2 kmh SE 5.0 mph8.0 kmh 29.81 in1009.5 mb - 0.00 in0.0 mm 0.00 in0.0 mm
11:00 AM 82.4°F28.0°C 54.2°F12.3°C 38% 2.3 mph S3.7 kmh S 3.0 mph4.8 kmh 29.79 in1008.8 mb - 0.00 in0.0 mm 0.00 in0.0 mm
11:10 AM 85.4°F29.7°C 69.9°F21.1°C 60% 1.0 mph SE1.6 kmh SE 2.0 mph3.2 kmh 29.81 in1009.5 mb - 0.00 in0.0 mm 0.00 in0.0 mm
11:20 AM 86.0°F30.0°C 69.5°F20.8°C 58% 1.0 mph SE1.6 kmh SE 3.0 mph4.8 kmh 29.81 in1009.5 mb - 0.00 in0.0 mm 0.00 in0.0 mm
11:30 AM 83.6°F28.7°C 53.1°F11.7°C 35% 3.6 mph ESE5.8 kmh ESE 7.0 mph11.3 kmh 29.79 in1008.8 mb - 0.00 in0.0 mm 0.00 in0.0 mm
11:40 AM 88.9°F31.6°C 70.1°F21.2°C 54% 1.0 mph SE1.6 kmh SE 1.0 mph1.6 kmh 29.81 in1009.5 mb - 0.00 in0.0 mm 0.00 in0.0 mm
11:50 AM 88.1°F31.2°C 68.2°F20.1°C 52% 1.0 mph SE1.6 kmh SE 1.0 mph1.6 kmh 29.81 in1009.5 mb - 0.00 in0.0 mm 0.00 in0.0 mm
12:00 PM 84.1°F28.9°C 52.7°F11.5°C 34% 3.7 mph SE6.0 kmh SE 5.0 mph8.0 kmh 29.78 in1008.5 mb - 0.00 in0.0 mm 0.00 in0.0 mm
12:10 PM 86.2°F30.1°C 69.7°F20.9°C 58% 2.0 mph SE3.2 kmh SE 2.0 mph3.2 kmh 29.81 in1009.5 mb - 0.00 in0.0 mm 0.00 in0.0 mm
12:20 PM 86.6°F30.3°C 70.6°F21.4°C 59% 3.0 mph ENE4.8 kmh ENE 3.0 mph4.8 kmh 29.81 in1009.5 mb - 0.00 in0.0 mm 0.00 in0.0 mm
12:30 PM 82.4°F28.0°C 56.3°F13.5°C 41% 3.2 mph SSE5.1 kmh SSE 6.0 mph9.7 kmh 29.78 in1008.5 mb - 0.00 in0.0 mm 0.00 in0.0 mm
12:40 PM 91.5°F33.1°C 71.9°F22.2°C 53% 2.0 mph ENE3.2 kmh ENE 2.0 mph3.2 kmh 29.80 in1009.1 mb - 0.00 in0.0 mm 0.00 in0.0 mm
12:50 PM 91.4°F33.0°C 70.2°F21.2°C 50% 1.0 mph ENE1.6 kmh ENE 2.0 mph3.2 kmh 29.81 in1009.5 mb - 0.00 in0.0 mm 0.00 in0.0 mm
01:00 PM 81.8°F27.7°C 55.8°F13.2°C 41% 4.0 mph ESE6.4 kmh ESE 6.0 mph9.7 kmh 29.79 in1008.8 mb - 0.00 in0.0 mm 0.00 in0.0 mm
01:10 PM 92.4°F33.6°C 69.8°F21.0°C 48% Calm Calm 2.0 mph3.2 kmh 29.81 in1009.5 mb - 0.00 in0.0 mm 0.00 in0.0 mm
01:20 PM 92.4°F33.6°C 67.9°F19.9°C 45% 2.0 mph NW3.2 kmh NW 3.0 mph4.8 kmh 29.80 in1009.1 mb - 0.00 in0.0 mm 0.00 in0.0 mm
01:30 PM 82.6°F28.1°C 56.5°F13.6°C 41% 3.0 mph E4.8 kmh E 5.0 mph8.0 kmh 29.79 in1008.8 mb - 0.00 in0.0 mm 0.00 in0.0 mm
01:40 PM 94.4°F34.7°C 67.8°F19.9°C 42% 5.0 mph SSW8.0 kmh SSW 7.0 mph11.3 kmh 29.80 in1009.1 mb - 0.00 in0.0 mm 0.00 in0.0 mm
01:50 PM 94.4°F34.7°C 67.8°F19.9°C 42% 2.0 mph NW3.2 kmh NW 3.0 mph4.8 kmh 29.80 in1009.1 mb - 0.00 in0.0 mm 0.00 in0.0 mm
02:00 PM 85.5°F29.7°C 54.7°F12.6°C 35% 2.8 mph E4.5 kmh E 6.0 mph9.7 kmh 29.78 in1008.5 mb - 0.00 in0.0 mm 0.00 in0.0 mm
02:10 PM 92.6°F33.7°C 64.7°F18.2°C 40% 2.0 mph W3.2 kmh W 3.0 mph4.8 kmh 29.80 in1009.1 mb - 0.00 in0.0 mm 0.00 in0.0 mm
02:20 PM 90.9°F32.7°C 66.0°F18.9°C 44% 1.0 mph W1.6 kmh W 2.0 mph3.2 kmh 29.80 in1009.1 mb - 0.00 in0.0 mm 0.00 in0.0 mm
02:30 PM 85.3°F29.6°C 51.2°F10.7°C 31% 2.5 mph E4.0 kmh E 4.0 mph6.4 kmh 29.78 in1008.5 mb - 0.00 in0.0 mm 0.00 in0.0 mm
02:40 PM 92.6°F33.7°C 64.8°F18.2°C 40% 5.0 mph W8.0 kmh W 7.0 mph11.3 kmh 29.80 in1009.1 mb - 0.00 in0.0 mm 0.00 in0.0 mm
02:50 PM 94.9°F34.9°C 64.5°F18.1°C 37% 3.0 mph W4.8 kmh W 3.0 mph4.8 kmh 29.80 in1009.1 mb - 0.00 in0.0 mm 0.00 in0.0 mm
03:00 PM 84.3°F29.1°C 52.9°F11.6°C 34% 5.2 mph SE8.4 kmh SE 7.0 mph11.3 kmh 29.77 in1008.1 mb - 0.00 in0.0 mm 0.00 in0.0 mm
03:10 PM 91.2°F32.9°C 64.2°F17.9°C 41% 5.0 mph W8.0 kmh W 10.0 mph16.1 kmh 29.80 in1009.1 mb - 0.00 in0.0 mm 0.00 in0.0 mm
03:20 PM 91.3°F32.9°C 65.7°F18.7°C 43% 6.0 mph WSW9.7 kmh WSW 12.0 mph19.3 kmh 29.79 in1008.8 mb - 0.00 in0.0 mm 0.00 in0.0 mm
03:30 PM 85.7°F29.8°C 50.7°F10.4°C 30% 4.8 mph SE7.7 kmh SE 7.0 mph11.3 kmh 29.77 in1008.1 mb - 0.00 in0.0 mm 0.00 in0.0 mm
03:40 PM 92.8°F33.8°C 65.6°F18.7°C 41% 9.0 mph W14.5 kmh W 16.0 mph25.7 kmh 29.79 in1008.8 mb - 0.00 in0.0 mm 0.00 in0.0 mm
03:50 PM 93.3°F34.1°C 65.4°F18.6°C 40% 10.0 mph WNW16.1 kmh WNW 14.0 mph22.5 kmh 29.78 in1008.5 mb - 0.00 in0.0 mm 0.00 in0.0 mm
04:00 PM 85.5°F29.7°C 50.5°F10.3°C 30% 4.5 mph SE7.2 kmh SE 10.0 mph16.1 kmh 29.75 in1007.5 mb - 0.00 in0.0 mm 0.00 in0.0 mm
04:10 PM 89.9°F32.2°C 65.0°F18.3°C 44% 7.0 mph W11.3 kmh W 10.0 mph16.1 kmh 29.78 in1008.5 mb - 0.00 in0.0 mm 0.00 in0.0 mm
04:20 PM 87.9°F31.1°C 65.8°F18.8°C 48% 5.0 mph NW8.0 kmh NW 7.0 mph11.3 kmh 29.79 in1008.8 mb - 0.00 in0.0 mm 0.00 in0.0 mm
04:30 PM 84.3°F29.1°C 46.7°F8.2°C 27% 3.0 mph SSE4.8 kmh SSE 5.0 mph8.0 kmh 29.75 in1007.5 mb - 0.00 in0.0 mm 0.00 in0.0 mm
04:40 PM 84.8°F29.3°C 65.2°F18.4°C 52% 6.0 mph WNW9.7 kmh WNW 8.0 mph12.9 kmh 29.78 in1008.5 mb - 0.00 in0.0 mm 0.00 in0.0 mm
04:50 PM 81.8°F27.7°C 66.0°F18.9°C 59% 6.0 mph E9.7 kmh E 9.0 mph14.5 kmh 29.80 in1009.1 mb - 0.00 in0.0 mm 0.00 in0.0 mm
05:00 PM 76.6°F24.8°C 52.5°F11.4°C 43% 2.7 mph NW4.3 kmh NW 3.0 mph4.8 kmh 29.75 in1007.5 mb - 0.00 in0.0 mm 0.00 in0.0 mm
05:10 PM 77.7°F25.4°C 64.1°F17.8°C 63% 3.0 mph E4.8 kmh E 7.0 mph11.3 kmh 29.82 in1009.8 mb - 0.00 in0.0 mm 0.00 in0.0 mm
05:20 PM 77.0°F25.0°C 63.9°F17.7°C 64% 8.0 mph E12.9 kmh E 12.0 mph19.3 kmh 29.84 in1010.5 mb - 0.00 in0.0 mm 0.00 in0.0 mm
05:30 PM 70.5°F21.4°C 65.1°F18.4°C 83% 3.0 mph E4.8 kmh E 5.0 mph8.0 kmh 29.77 in1008.1 mb - 0.16 in4.1 mm 0.16 in4.1 mm
05:40 PM 74.3°F23.5°C 62.2°F16.8°C 66% 12.0 mph SE19.3 kmh SE 14.0 mph22.5 kmh 29.84 in1010.5 mb - 0.00 in0.0 mm 0.16 in4.1 mm
05:50 PM 73.7°F23.2°C 62.1°F16.7°C 67% 7.0 mph E11.3 kmh E 12.0 mph19.3 kmh 29.84 in1010.5 mb - 0.00 in0.0 mm 0.16 in4.1 mm
06:00 PM 67.0°F19.4°C 65.3°F18.5°C 94% 4.1 mph NNE6.6 kmh NNE 4.0 mph6.4 kmh 29.78 in1008.5 mb - 0.15 in3.8 mm 0.30 in7.6 mm
06:10 PM 73.3°F22.9°C 62.5°F16.9°C 69% 1.0 mph ENE1.6 kmh ENE 2.0 mph3.2 kmh 29.84 in1010.5 mb - 0.00 in0.0 mm 0.31 in7.9 mm
06:20 PM 73.1°F22.8°C 62.3°F16.8°C 69% Calm Calm -- 29.84 in1010.5 mb - 0.00 in0.0 mm 0.31 in7.9 mm
06:30 PM 66.6°F19.2°C 65.4°F18.6°C 96% 4.9 mph NNE7.9 kmh NNE 7.0 mph11.3 kmh 29.77 in1008.1 mb - 0.02 in0.5 mm 0.32 in8.1 mm
06:40 PM 73.0°F22.8°C 63.4°F17.4°C 72% Calm Calm -- 29.84 in1010.5 mb - 0.00 in0.0 mm 0.33 in8.4 mm
06:50 PM 73.3°F22.9°C 63.3°F17.4°C 71% Calm Calm 1.0 mph1.6 kmh 29.83 in1010.2 mb - 0.00 in0.0 mm 0.33 in8.4 mm
07:00 PM 66.3°F19.1°C 64.0°F17.8°C 92% 5.8 mph SE9.3 kmh SE 11.0 mph17.7 kmh 29.79 in1008.8 mb - 0.01 in0.3 mm 0.33 in8.4 mm
07:10 PM 73.4°F23.0°C 63.8°F17.7°C 72% Calm Calm -- 29.84 in1010.5 mb - 0.00 in0.0 mm 0.34 in8.6 mm
07:20 PM 73.4°F23.0°C 65.0°F18.3°C 75% Calm Calm 2.0 mph3.2 kmh 29.84 in1010.5 mb - 0.00 in0.0 mm 0.34 in8.6 mm
07:30 PM 65.2°F18.4°C 62.8°F17.1°C 92% 3.7 mph NE6.0 kmh NE 4.0 mph6.4 kmh 29.77 in1008.1 mb - 0.00 in0.0 mm 0.33 in8.4 mm
07:40 PM 73.2°F22.9°C 64.0°F17.8°C 73% Calm Calm 1.0 mph1.6 kmh 29.85 in1010.8 mb - 0.00 in0.0 mm 0.34 in8.6 mm
07:50 PM 72.8°F22.7°C 64.0°F17.8°C 74% 1.0 mph ENE1.6 kmh ENE 1.0 mph1.6 kmh 29.86 in1011.2 mb - 0.00 in0.0 mm 0.34 in8.6 mm
08:00 PM 65.2°F18.4°C 62.2°F16.8°C 90% Calm Calm -- 29.78 in1008.5 mb - 0.01 in0.3 mm 0.33 in8.4 mm
08:10 PM 72.3°F22.4°C 64.7°F18.2°C 77% Calm Calm 1.0 mph1.6 kmh 29.87 in1011.5 mb - 0.00 in0.0 mm 0.35 in8.9 mm
08:20 PM 72.1°F22.3°C 64.8°F18.2°C 78% Calm Calm 1.0 mph1.6 kmh 29.86 in1011.2 mb - 0.00 in0.0 mm 0.35 in8.9 mm
08:30 PM 65.2°F18.4°C 63.4°F17.4°C 94% 4.4 mph W7.1 kmh W 5.0 mph8.0 kmh 29.80 in1009.1 mb - 0.02 in0.5 mm 0.34 in8.6 mm
08:40 PM 70.3°F21.3°C 64.6°F18.1°C 82% Calm Calm -- 29.86 in1011.2 mb - 0.00 in0.0 mm 0.37 in9.4 mm
08:50 PM 69.8°F21.0°C 64.7°F18.2°C 84% Calm Calm -- 29.86 in1011.2 mb - 0.00 in0.0 mm 0.37 in9.4 mm
09:00 PM 65.8°F18.8°C 62.8°F17.1°C 90% 4.6 mph WNW7.4 kmh WNW 6.0 mph9.7 kmh 29.82 in1009.8 mb - 0.00 in0.0 mm 0.34 in8.6 mm
09:10 PM 69.2°F20.7°C 64.5°F18.1°C 85% 2.0 mph ENE3.2 kmh ENE 3.0 mph4.8 kmh 29.86 in1011.2 mb - 0.00 in0.0 mm 0.37 in9.4 mm
09:20 PM 69.2°F20.7°C 64.2°F17.9°C 84% Calm Calm 2.0 mph3.2 kmh 29.87 in1011.5 mb - 0.00 in0.0 mm 0.37 in9.4 mm
09:30 PM 65.6°F18.7°C 62.9°F17.2°C 91% 0.9 mph WNW1.4 kmh WNW 3.0 mph4.8 kmh 29.82 in1009.8 mb - 0.00 in0.0 mm 0.34 in8.6 mm
09:40 PM 69.2°F20.7°C 64.5°F18.1°C 85% Calm Calm 3.0 mph4.8 kmh 29.90 in1012.5 mb - 0.00 in0.0 mm 0.37 in9.4 mm
09:50 PM 68.9°F20.5°C 64.2°F17.9°C 85% 2.0 mph ENE3.2 kmh ENE 3.0 mph4.8 kmh 29.91 in1012.9 mb - 0.00 in0.0 mm 0.37 in9.4 mm
10:00 PM 64.8°F18.2°C 62.1°F16.7°C 91% 1.6 mph W2.6 kmh W 1.0 mph1.6 kmh 29.83 in1010.2 mb - 0.00 in0.0 mm 0.34 in8.6 mm
10:10 PM 69.2°F20.7°C 64.5°F18.1°C 85% 3.0 mph SE4.8 kmh SE 6.0 mph9.7 kmh 29.92 in1013.2 mb - 0.00 in0.0 mm 0.37 in9.4 mm
10:20 PM 70.0°F21.1°C 64.6°F18.1°C 83% 5.0 mph S8.0 kmh S 8.0 mph12.9 kmh 29.93 in1013.5 mb - 0.00 in0.0 mm 0.37 in9.4 mm
10:30 PM 64.0°F17.8°C 61.9°F16.6°C 93% 0.3 mph NE0.5 kmh NE 1.0 mph1.6 kmh 29.83 in1010.2 mb - 0.00 in0.0 mm 0.34 in8.6 mm
10:40 PM 71.4°F21.9°C 64.9°F18.3°C 80% 8.0 mph S12.9 kmh S 20.0 mph32.2 kmh 29.94 in1013.9 mb - 0.00 in0.0 mm 0.37 in9.4 mm
10:50 PM 70.1°F21.2°C 64.0°F17.8°C 81% 9.0 mph SE14.5 kmh SE 18.0 mph29.0 kmh 29.95 in1014.2 mb - 0.00 in0.0 mm 0.37 in9.4 mm
11:00 PM 64.2°F17.9°C 62.4°F16.9°C 94% 2.6 mph ENE4.2 kmh ENE 6.0 mph9.7 kmh 29.83 in1010.2 mb - 0.00 in0.0 mm 0.37 in9.4 mm
11:10 PM 65.9°F18.8°C 61.9°F16.6°C 87% 5.0 mph SSE8.0 kmh SSE 9.0 mph14.5 kmh 29.96 in1014.6 mb - 0.01 in0.3 mm 0.38 in9.7 mm
11:20 PM 64.9°F18.3°C 62.2°F16.8°C 91% 1.0 mph SE1.6 kmh SE 3.0 mph4.8 kmh 29.97 in1014.9 mb - 0.01 in0.3 mm 0.39 in9.9 mm
11:30 PM 63.9°F17.7°C 62.4°F16.9°C 95% 6.3 mph NNE10.1 kmh NNE 10.0 mph16.1 kmh 29.86 in1011.2 mb - 0.05 in1.3 mm 0.05 in1.3 mm
11:40 PM 64.2°F17.9°C 62.7°F17.1°C 95% 6.0 mph NE9.7 kmh NE 9.0 mph14.5 kmh 29.95 in1014.2 mb - 0.02 in0.5 mm 0.46 in11.7 mm
11:50 PM 63.8°F17.7°C 62.7°F17.1°C 96% 6.0 mph ENE9.7 kmh ENE 6.0 mph9.7 kmh 29.94 in1013.9 mb - 0.02 in0.5 mm 0.48 in12.2 mm